YTWH weather

The Tweed Hospital Helipad
Tweed Heads, New South Wales, Australia

Public forecast

Using degrees Celsius for public forecast. Weather courtesy of forecast.io.

METAR (pilot weather report)

Closest report is Gold Coast Airport, 2.3 nm (4.3 km) WNW. Retrieved 2019/04/20 13:30 UTC (25 minutes ago):

YBCG 201330Z AUTO 11013KT 9999 // SCT024 BKN029 BKN060 23/19 Q1022

TAF (pilot weather forecast)

Forecast is more than 6 hours old.

Closest forecast is Gold Coast Airport, 2.3 nm (4.3 km) WNW. Retrieved 2019/04/20 06:00 UTC (8 hours ago):

TAF YBCG 200504Z 2006/2106 13014KT 9999 -SHRA FEW015 SCT025 BKN040 FM201200 15008KT 9999 -SHRA SCT015 SCT030 FM202300 12014KT 9999 -SHRA SCT020 SCT030 INTER 2006/2018 3000 SHRA BKN012